Time;durP1;ratioP1;P1;durP2;ratioP2;P2;SDS_P1;SDS_P2;PMS_P1;PMS_P2;Temp;Humidity;BMP_temperature;BMP_pressure;BME280_temperature;BME280_humidity;BME280_pressure;Samples;Min_cycle;Max_cycle;Signal;HPM_P1;HPM_P2
2021/04/12 00:01:48;;;;;;;9.83;5.50;;;;;;;4.61;80.10;96663.78;4935622;29;20476;-68
2021/04/12 00:04:22;;;;;;;5.90;5.30;;;;;;;4.19;81.06;96668.16;4937106;29;20588;-68
2021/04/12 00:06:53;;;;;;;6.50;5.83;;;;;;;4.38;80.70;96659.69;4937151;29;20430;-68
2021/04/12 00:09:27;;;;;;;7.53;6.87;;;;;;;4.06;81.68;96660.56;4935163;29;20577;-67
2021/04/12 00:12:27;;;;;;;7.30;6.60;;;;;;;4.06;81.77;96653.59;4936673;29;20772;-68
2021/04/12 00:14:56;;;;;;;7.70;7.00;;;;;;;4.03;81.55;96674.59;5000668;28;20520;-69
2021/04/12 00:17:31;;;;;;;9.00;7.93;;;;;;;4.70;79.92;96669.16;5017781;28;20522;-66
2021/04/12 00:20:06;;;;;;;9.47;7.50;;;;;;;4.15;80.31;96676.19;5030790;28;20440;-68
2021/04/12 00:22:36;;;;;;;9.20;7.47;;;;;;;4.02;81.27;96691.09;5031657;28;20485;-67
2021/04/12 00:25:23;;;;;;;8.50;7.60;;;;;;;3.82;80.24;96695.28;5015215;28;20457;-67
2021/04/12 00:27:53;;;;;;;8.13;7.27;;;;;;;4.23;79.69;96700.69;5031036;28;20418;-66
2021/04/12 00:30:23;;;;;;;7.80;7.00;;;;;;;4.14;80.09;96707.44;5031604;28;20485;-68
2021/04/12 00:32:57;;;;;;;7.90;7.10;;;;;;;4.21;79.73;96710.34;5031630;28;20927;-66
2021/04/12 00:35:38;;;;;;;8.27;7.47;;;;;;;4.26;79.48;96713.41;5030804;28;20489;-67
2021/04/12 00:38:12;;;;;;;9.10;7.87;;;;;;;4.18;79.84;96715.78;5030818;28;20500;-66
2021/04/12 00:41:00;;;;;;;7.93;7.13;;;;;;;3.90;79.55;96715.44;5031378;28;20425;-67
2021/04/12 00:43:41;;;;;;;8.73;7.53;;;;;;;3.83;80.14;96736.63;5032174;28;20422;-67
2021/04/12 00:46:06;;;;;;;7.70;6.90;;;;;;;4.11;78.46;96742.22;5032030;28;20814;-67
2021/04/12 00:48:41;;;;;;;8.80;7.73;;;;;;;3.73;79.76;96740.91;5033691;28;20422;-66
2021/04/12 00:51:39;;;;;;;9.53;8.20;;;;;;;3.87;79.55;96757.16;5033473;28;20190;-67
2021/04/12 00:54:19;;;;;;;8.23;7.37;;;;;;;3.90;79.50;96751.72;4977122;28;20548;-68
2021/04/12 00:57:07;;;;;;;8.00;7.20;;;;;;;3.75;78.91;96758.91;5033494;28;20509;-67
2021/04/12 00:59:47;;;;;;;8.43;7.63;;;;;;;3.75;79.76;96764.09;5033759;28;20465;-67
2021/04/12 01:02:42;;;;;;;8.63;7.73;;;;;;;4.01;79.48;96769.84;5032827;28;20473;-68
2021/04/12 01:05:29;;;;;;;8.27;7.37;;;;;;;3.58;79.77;96766.28;5019117;28;20953;-68
2021/04/12 01:08:32;;;;;;;15.20;9.70;;;;;;;3.67;80.46;96762.94;5030535;28;20426;-69
2021/04/12 01:11:11;;;;;;;10.70;8.43;;;;;;;3.83;80.24;96772.13;5025986;28;20419;-67
2021/04/12 01:13:51;;;;;;;9.90;8.73;;;;;;;3.75;79.76;96775.31;5030757;28;20820;-68
2021/04/12 01:16:23;;;;;;;9.60;7.90;;;;;;;3.80;79.90;96782.72;5032121;28;20501;-67
2021/04/12 01:19:20;;;;;;;11.07;8.80;;;;;;;3.69;80.18;96779.22;5025389;28;20430;-67
2021/04/12 01:21:58;;;;;;;10.13;8.97;;;;;;;3.79;79.76;96781.09;5032116;28;20470;-67
2021/04/12 01:24:42;;;;;;;10.20;8.80;;;;;;;3.92;79.83;96788.69;5032442;28;20438;-67
2021/04/12 01:27:31;;;;;;;11.37;9.57;;;;;;;3.73;80.09;96797.94;5030829;28;20419;-66
2021/04/12 01:30:18;;;;;;;12.43;10.07;;;;;;;3.43;81.14;96812.31;5032277;28;20414;-69
2021/04/12 01:33:17;;;;;;;12.70;10.30;;;;;;;3.56;80.86;96803.59;5031072;28;20958;-65
2021/04/12 01:36:11;;;;;;;12.70;10.70;;;;;;;3.46;81.29;96808.69;5031167;28;20952;-68
2021/04/12 01:38:55;;;;;;;12.13;9.93;;;;;;;3.69;80.20;96806.88;5032229;28;20435;-67
2021/04/12 01:41:34;;;;;;;15.33;10.50;;;;;;;3.47;79.86;96795.59;5015951;28;20485;-68
2021/04/12 01:44:15;;;;;;;13.57;9.97;;;;;;;3.51;80.19;96814.31;5032045;28;20431;-69
2021/04/12 01:47:17;;;;;;;11.37;9.67;;;;;;;3.43;80.28;96809.72;5031844;28;20486;-67
2021/04/12 01:49:45;;;;;;;11.63;9.13;;;;;;;3.54;80.23;96817.47;5029751;28;20434;-69
2021/04/12 01:52:48;;;;;;;10.93;9.53;;;;;;;3.39;79.54;96821.28;5030363;28;20426;-68
2021/04/12 01:55:39;;;;;;;10.53;8.27;;;;;;;3.51;80.00;96830.69;5031526;28;20434;-67
2021/04/12 01:58:17;;;;;;;12.23;9.50;;;;;;;3.42;79.73;96831.38;5029151;28;20522;-67
2021/04/12 02:01:29;;;;;;;12.63;9.20;;;;;;;3.18;79.57;96850.44;5031623;28;20517;-67
2021/04/12 02:04:12;;;;;;;10.10;8.40;;;;;;;3.34;80.25;96847.50;5027494;28;20507;-67
2021/04/12 02:06:46;;;;;;;9.03;7.80;;;;;;;3.22;79.86;96872.56;5031422;28;20414;-67
2021/04/12 02:09:38;;;;;;;9.80;8.07;;;;;;;3.07;80.88;96886.66;5028649;28;20445;-67
2021/04/12 02:12:31;;;;;;;9.97;8.20;;;;;;;3.18;80.92;96884.09;5030279;28;20419;-68
2021/04/12 02:15:00;;;;;;;11.13;8.20;;;;;;;3.37;79.98;96880.16;5010648;28;20964;-66
2021/04/12 02:17:45;;;;;;;11.00;8.57;;;;;;;3.33;79.36;96878.72;5029601;28;20435;-66
2021/04/12 02:20:17;;;;;;;12.30;8.50;;;;;;;3.50;78.48;96886.06;5030356;28;20410;-67
2021/04/12 02:23:07;;;;;;;10.43;8.40;;;;;;;3.21;79.88;96881.28;5031209;28;20473;-67
2021/04/12 02:25:39;;;;;;;10.50;8.03;;;;;;;3.37;79.47;96880.16;5031159;28;20493;-68
2021/04/12 02:28:09;;;;;;;11.33;8.87;;;;;;;3.47;79.29;96888.88;5012161;28;20422;-67
2021/04/12 02:30:58;;;;;;;10.27;8.23;;;;;;;3.50;77.92;96895.56;5031016;28;20422;-68
2021/04/12 02:33:40;;;;;;;12.93;8.17;;;;;;;3.47;78.19;96894.06;5031846;28;20423;-67
2021/04/12 02:36:19;;;;;;;10.57;8.30;;;;;;;3.30;78.38;96897.91;5031912;28;20511;-65
2021/04/12 02:38:57;;;;;;;11.83;9.53;;;;;;;3.15;79.54;96892.09;5030297;28;20418;-67
2021/04/12 02:41:41;;;;;;;12.17;9.67;;;;;;;3.21;79.70;96893.41;5029863;28;20924;-67
2021/04/12 02:44:19;;;;;;;11.37;10.00;;;;;;;3.26;80.14;96898.25;5029834;28;20446;-67
2021/04/12 02:47:22;;;;;;;13.00;10.30;;;;;;;2.95;79.37;96906.53;5029867;28;20432;-67
2021/04/12 02:50:33;;;;;;;15.03;11.90;;;;;;;2.94;79.98;96923.00;5031147;28;20425;-68
2021/04/12 02:53:32;;;;;;;15.10;10.43;;;;;;;2.97;80.05;96921.94;4942062;29;20438;-66
2021/04/12 02:56:16;;;;;;;15.57;11.23;;;;;;;2.97;80.06;96916.75;5024732;28;20428;-67
2021/04/12 02:58:57;;;;;;;12.50;9.50;;;;;;;3.19;79.75;96909.06;5035245;28;20449;-68
2021/04/12 03:01:46;;;;;;;12.10;9.30;;;;;;;3.12;78.97;96907.88;5046564;28;20458;-69
2021/04/12 03:04:51;;;;;;;13.00;10.00;;;;;;;3.32;78.85;96918.50;5029177;28;20442;-67
2021/04/12 03:07:32;;;;;;;12.87;9.60;;;;;;;2.91;80.28;96936.97;5015938;28;20431;-68
2021/04/12 03:10:20;;;;;;;12.97;10.40;;;;;;;2.98;79.80;96937.34;5019607;28;20976;-70
2021/04/12 03:13:11;;;;;;;13.30;9.90;;;;;;;3.11;79.42;96950.25;5029843;28;20419;-66
2021/04/12 03:15:52;;;;;;;14.10;10.73;;;;;;;3.00;80.19;96951.00;5015260;28;20447;-67
2021/04/12 03:19:05;;;;;;;12.57;10.53;;;;;;;2.80;80.29;96956.81;5019038;28;20430;-66
2021/04/12 03:21:42;;;;;;;14.13;10.40;;;;;;;3.18;78.85;96963.56;4934174;29;20490;-68
2021/04/12 03:24:10;;;;;;;14.17;10.30;;;;;;;2.95;79.48;96962.63;4932697;29;20522;-68
2021/04/12 03:26:51;;;;;;;17.23;11.10;;;;;;;3.11;79.44;96957.16;4934624;29;20431;-67
2021/04/12 03:29:25;;;;;;;12.10;9.70;;;;;;;2.93;79.62;96960.16;4934528;29;20434;-65
2021/04/12 03:32:38;;;;;;;15.30;10.10;;;;;;;2.91;79.88;96955.09;4933985;29;20944;-67
2021/04/12 03:35:15;;;;;;;14.10;10.03;;;;;;;2.95;79.60;96953.13;4917813;29;20907;-66
2021/04/12 03:38:11;;;;;;;12.40;8.80;;;;;;;3.20;79.12;96952.16;4915372;29;20431;-66
2021/04/12 03:40:41;;;;;;;15.07;9.93;;;;;;;3.06;79.49;96953.16;4928717;29;20435;-68
2021/04/12 03:43:20;;;;;;;13.70;9.90;;;;;;;3.07;79.40;96966.94;4932882;29;20434;-67
2021/04/12 03:46:07;;;;;;;12.33;9.20;;;;;;;3.07;79.11;96972.94;4918353;29;20514;-69
2021/04/12 03:48:45;;;;;;;14.00;10.00;;;;;;;3.01;79.61;96972.56;4934545;29;20639;-67
2021/04/12 03:51:29;;;;;;;12.10;10.07;;;;;;;3.23;78.59;96983.03;4943529;28;20424;-66
2021/04/12 03:54:28;;;;;;;15.60;9.70;;;;;;;3.38;77.91;96990.59;5017529;28;20474;-65
2021/04/12 03:57:15;;;;;;;14.40;10.83;;;;;;;3.09;79.57;97001.31;5014380;28;20506;-67
2021/04/12 03:59:56;;;;;;;14.73;10.17;;;;;;;3.27;78.91;96998.34;5008919;28;20489;-69
2021/04/12 04:03:03;;;;;;;15.40;11.13;;;;;;;3.30;79.16;97021.41;5003760;28;20451;-67
2021/04/12 04:05:43;;;;;;;14.40;11.17;;;;;;;3.30;79.36;97018.81;4993560;28;20455;-68
2021/04/12 04:08:15;;;;;;;17.03;10.47;;;;;;;3.18;78.91;97023.13;5006512;28;20954;-68
2021/04/12 04:10:53;;;;;;;15.20;11.03;;;;;;;3.05;79.10;97028.34;5014615;28;20423;-68
2021/04/12 04:13:33;;;;;;;15.80;10.90;;;;;;;3.32;78.68;97022.97;5014393;28;20427;-65
2021/04/12 04:16:38;;;;;;;13.87;10.63;;;;;;;3.21;79.08;97021.16;5014044;28;20435;-67
2021/04/12 04:19:29;;;;;;;14.63;11.00;;;;;;;3.01;79.39;97020.00;5006018;28;20427;-68
2021/04/12 04:22:09;;;;;;;16.90;11.77;;;;;;;2.78;80.73;97021.59;5020373;28;20569;-68
2021/04/12 04:24:55;;;;;;;15.97;11.30;;;;;;;2.81;80.21;97024.00;5007145;28;20937;-67
2021/04/12 04:27:58;;;;;;;16.33;10.40;;;;;;;3.11;79.95;97034.84;5020574;28;20482;-67
2021/04/12 04:31:02;;;;;;;15.57;9.13;;;;;;;2.84;79.92;97030.69;5005103;28;20419;-66
2021/04/12 04:34:04;;;;;;;11.93;9.47;;;;;;;3.14;78.73;97039.81;5006742;28;20514;-67
2021/04/12 04:36:58;;;;;;;14.70;10.90;;;;;;;3.32;78.31;97048.03;5007135;28;20418;-66
2021/04/12 04:39:33;;;;;;;14.47;10.03;;;;;;;3.10;78.62;97054.75;5011376;28;20466;-66
2021/04/12 04:42:49;;;;;;;13.97;10.43;;;;;;;2.97;79.55;97059.97;5011686;28;20454;-67
2021/04/12 04:45:52;;;;;;;13.00;9.80;;;;;;;3.10;79.21;97069.47;4979672;28;20451;-67
2021/04/12 04:48:29;;;;;;;11.00;8.40;;;;;;;2.79;80.58;97072.44;5012065;28;20477;-67
2021/04/12 04:51:09;;;;;;;10.83;7.90;;;;;;;2.92;79.39;97073.25;5013219;28;20420;-68
2021/04/12 04:54:01;;;;;;;11.57;7.83;;;;;;;3.08;79.02;97077.34;5011916;28;20485;-67
2021/04/12 04:56:40;;;;;;;8.33;6.90;;;;;;;3.02;79.37;97085.56;4985303;28;20802;-67
2021/04/12 04:59:08;;;;;;;10.00;7.13;;;;;;;2.89;79.72;97104.53;5011377;28;20419;-66
2021/04/12 05:01:44;;;;;;;7.93;6.60;;;;;;;2.94;79.37;97101.63;5012987;28;21044;-67
2021/04/12 05:04:16;;;;;;;17.57;7.53;;;;;;;3.22;78.57;97102.25;5028318;28;20696;-67
2021/04/12 05:07:33;;;;;;;10.40;7.30;;;;;;;2.90;79.88;97108.75;5012909;28;20427;-67
2021/04/12 05:10:33;;;;;;;10.77;7.80;;;;;;;2.77;80.26;97100.22;4991366;28;20947;-67
2021/04/12 05:13:07;;;;;;;10.60;7.50;;;;;;;2.99;79.29;97109.88;4951442;28;20502;-66
2021/04/12 05:15:56;;;;;;;12.67;9.47;;;;;;;2.85;79.62;97118.63;4984611;28;20508;-67
2021/04/12 05:18:43;;;;;;;13.13;8.53;;;;;;;2.98;79.38;97123.78;4989295;28;20439;-65
2021/04/12 05:21:31;;;;;;;11.00;8.30;;;;;;;2.95;79.39;97123.16;4997771;28;20514;-67
2021/04/12 05:24:12;;;;;;;10.90;8.10;;;;;;;3.00;78.93;97121.09;4971164;28;20437;-66
2021/04/12 05:27:17;;;;;;;13.80;9.50;;;;;;;2.92;79.39;97131.97;4990455;28;20438;-67
2021/04/12 05:30:19;;;;;;;19.20;9.17;;;;;;;3.00;78.79;97142.63;4976161;28;20419;-67
2021/04/12 05:32:53;;;;;;;15.47;8.90;;;;;;;2.82;79.42;97149.09;4990667;28;20429;-66
2021/04/12 05:35:21;;;;;;;11.83;8.60;;;;;;;3.00;79.60;97155.56;4998296;28;20546;-65
2021/04/12 05:38:07;;;;;;;11.33;9.13;;;;;;;3.05;79.71;97153.50;4997741;28;20922;-67
2021/04/12 05:41:04;;;;;;;38.70;12.27;;;;;;;3.03;79.02;97152.78;4989162;28;20435;-67
2021/04/12 05:44:14;;;;;;;58.00;18.97;;;;;;;2.81;79.49;97153.41;4977584;28;20919;-66
2021/04/12 05:47:01;;;;;;;56.63;18.03;;;;;;;2.84;79.69;97147.19;5012066;28;20827;-67
2021/04/12 05:49:54;;;;;;;24.20;11.80;;;;;;;3.02;78.91;97173.59;5010328;28;20411;-68
2021/04/12 05:52:41;;;;;;;24.70;11.10;;;;;;;2.95;78.94;97180.13;5023827;28;20959;-67
2021/04/12 05:55:36;;;;;;;17.67;12.17;;;;;;;2.87;79.96;97183.22;5029553;28;21003;-68
2021/04/12 05:58:08;;;;;;;23.93;13.70;;;;;;;3.12;78.96;97190.16;5018542;28;20514;-67
2021/04/12 06:00:41;;;;;;;26.30;14.60;;;;;;;3.15;79.10;97192.50;5011654;28;20431;-67
2021/04/12 06:03:43;;;;;;;39.83;18.10;;;;;;;2.91;79.70;97203.63;5022697;28;20463;-66
2021/04/12 06:06:57;;;;;;;37.07;15.17;;;;;;;3.21;79.00;97207.66;5015609;28;20426;-68
2021/04/12 06:09:36;;;;;;;59.73;18.10;;;;;;;3.38;78.04;97213.44;4956040;28;20530;-67
2021/04/12 06:12:15;;;;;;;23.37;15.37;;;;;;;2.80;78.97;97224.22;5019269;28;20419;-68
2021/04/12 06:14:47;;;;;;;20.77;14.03;;;;;;;2.98;78.87;97231.72;5012452;28;20508;-69
2021/04/12 06:17:28;;;;;;;20.03;15.17;;;;;;;3.05;79.35;97226.00;5010116;28;20427;-68
2021/04/12 06:20:13;;;;;;;17.73;12.93;;;;;;;3.26;78.48;97233.22;5015893;28;20452;-68
2021/04/12 06:23:00;;;;;;;20.20;14.33;;;;;;;3.22;77.98;97229.19;5012150;28;20463;-67
2021/04/12 06:25:40;;;;;;;24.50;14.57;;;;;;;3.48;77.36;97232.56;5004837;28;20458;-67
2021/04/12 06:28:30;;;;;;;19.67;13.20;;;;;;;3.29;77.63;97234.78;5011853;28;20787;-67
2021/04/12 06:31:22;;;;;;;19.00;13.13;;;;;;;3.37;77.28;97250.63;5011777;28;20462;-68
2021/04/12 06:34:03;;;;;;;21.40;14.00;;;;;;;3.52;76.33;97256.50;5019731;28;20450;-68
2021/04/12 06:37:15;;;;;;;19.50;13.33;;;;;;;3.89;75.90;97245.31;5002799;28;20423;-68
2021/04/12 06:39:40;;;;;;;16.30;12.23;;;;;;;3.42;76.59;97253.72;5012006;28;20427;-67
2021/04/12 06:42:43;;;;;;;16.40;12.60;;;;;;;3.47;76.57;97264.59;5011598;28;20992;-67
2021/04/12 06:45:35;;;;;;;19.27;12.97;;;;;;;3.95;75.42;97268.22;5019805;28;20212;-67
2021/04/12 06:48:28;;;;;;;18.37;12.80;;;;;;;4.05;75.49;97270.97;5011716;28;20828;-67
2021/04/12 06:51:18;;;;;;;22.70;13.90;;;;;;;3.89;75.38;97274.66;5012135;28;20442;-67
2021/04/12 06:54:05;;;;;;;17.47;12.70;;;;;;;4.23;74.52;97281.81;5009326;28;20529;-69
2021/04/12 06:57:20;;;;;;;18.53;13.30;;;;;;;4.02;75.06;97287.59;5013834;28;20422;-67
2021/04/12 07:00:24;;;;;;;24.07;13.43;;;;;;;4.08;74.74;97283.75;5009990;28;20937;-67
2021/04/12 07:02:58;;;;;;;16.90;12.37;;;;;;;3.69;75.62;97282.09;4963678;28;20471;-67
2021/04/12 07:05:30;;;;;;;22.57;12.67;;;;;;;3.87;74.78;97294.69;5008453;28;20529;-66
2021/04/12 07:08:11;;;;;;;22.70;13.10;;;;;;;4.06;75.46;97308.97;5015472;28;20458;-66
2021/04/12 07:11:05;;;;;;;20.30;13.10;;;;;;;3.76;75.08;97315.34;5015826;28;20434;-66
2021/04/12 07:13:58;;;;;;;15.87;12.77;;;;;;;3.94;74.74;97313.22;5008116;28;20501;-67
2021/04/12 07:16:50;;;;;;;19.13;13.10;;;;;;;3.93;75.58;97308.97;5007231;28;20455;-68
2021/04/12 07:19:50;;;;;;;25.23;14.60;;;;;;;4.18;74.07;97315.88;5017112;28;20431;-66
2021/04/12 07:22:44;;;;;;;43.97;23.07;;;;;;;4.13;74.25;97321.38;5015917;28;20466;-67
2021/04/12 07:25:31;;;;;;;35.60;19.27;;;;;;;3.87;74.70;97318.03;5016243;28;20447;-69
2021/04/12 07:28:21;;;;;;;27.93;17.67;;;;;;;3.82;75.13;97323.53;5014353;28;20427;-68
2021/04/12 07:31:16;;;;;;;32.70;19.90;;;;;;;4.09;74.72;97327.72;5013092;28;20434;-66
2021/04/12 07:34:19;;;;;;;27.83;15.93;;;;;;;3.90;74.86;97335.16;5007887;28;20486;-66
2021/04/12 07:37:13;;;;;;;24.40;16.03;;;;;;;3.53;76.56;97333.31;5008786;28;20419;-68
2021/04/12 07:40:02;;;;;;;27.33;17.57;;;;;;;3.83;74.81;97326.97;5009051;28;20427;-68
2021/04/12 07:42:31;;;;;;;24.90;16.00;;;;;;;3.90;75.27;97335.16;5006853;28;20570;-68
2021/04/12 07:45:22;;;;;;;24.83;17.30;;;;;;;3.97;75.04;97331.19;5014160;28;20503;-67
2021/04/12 07:48:22;;;;;;;30.23;17.57;;;;;;;3.83;75.00;97345.94;5014394;28;20490;-68
2021/04/12 07:51:13;;;;;;;28.77;19.70;;;;;;;3.93;74.74;97345.28;5008318;28;20849;-67
2021/04/12 07:54:16;;;;;;;28.63;18.73;;;;;;;3.77;75.72;97359.34;5007855;28;20411;-67
2021/04/12 07:57:04;;;;;;;30.33;17.53;;;;;;;3.91;74.45;97367.91;5008813;28;20784;-68
2021/04/12 08:00:14;;;;;;;27.47;19.20;;;;;;;4.09;74.88;97361.44;5013018;28;20894;-66
2021/04/12 08:03:17;;;;;;;24.53;17.70;;;;;;;4.06;74.55;97368.63;5022383;28;21091;-68
2021/04/12 08:05:52;;;;;;;29.23;19.77;;;;;;;4.30;73.28;97371.22;5002535;28;20462;-67
2021/04/12 08:08:45;;;;;;;29.27;18.80;;;;;;;4.50;73.47;97379.38;5013646;28;20478;-68
2021/04/12 08:11:43;;;;;;;27.57;18.30;;;;;;;4.41;73.49;97379.06;5012721;28;20411;-69
2021/04/12 08:14:20;;;;;;;27.57;17.73;;;;;;;4.19;73.32;97373.75;5013583;28;20447;-69
2021/04/12 08:17:11;;;;;;;29.77;19.77;;;;;;;4.11;74.09;97376.88;5020636;28;20544;-69
2021/04/12 08:20:07;;;;;;;30.70;17.73;;;;;;;4.22;73.87;97378.75;5018027;28;20430;-67
2021/04/12 08:22:51;;;;;;;26.47;17.77;;;;;;;3.92;74.53;97392.91;5004918;28;20969;-67
2021/04/12 08:25:23;;;;;;;29.97;18.60;;;;;;;4.15;73.34;97394.75;5013056;28;20663;-68
2021/04/12 08:27:51;;;;;;;30.97;19.30;;;;;;;4.39;73.69;97385.31;5013795;28;20779;-67
2021/04/12 08:30:38;;;;;;;26.90;19.03;;;;;;;4.60;71.72;97388.97;5012318;28;20431;-68
2021/04/12 08:33:48;;;;;;;28.03;18.10;;;;;;;4.95;71.73;97386.56;5011799;28;20917;-67
2021/04/12 08:36:56;;;;;;;26.97;18.87;;;;;;;4.51;71.85;97394.03;5012761;28;20481;-70
2021/04/12 08:39:46;;;;;;;28.87;18.37;;;;;;;4.50;72.31;97398.38;5006604;28;20939;-68
2021/04/12 08:42:31;;;;;;;25.67;18.63;;;;;;;4.64;72.07;97400.00;5024513;28;20494;-66
2021/04/12 08:45:23;;;;;;;30.20;18.77;;;;;;;4.86;72.05;97399.25;5012904;28;20462;-67
2021/04/12 08:48:26;;;;;;;28.80;18.07;;;;;;;4.75;71.72;97407.00;5010795;28;20494;-67
2021/04/12 08:51:30;;;;;;;24.40;17.13;;;;;;;5.10;69.53;97402.78;5003160;28;20590;-68
2021/04/12 08:54:33;;;;;;;21.30;16.20;;;;;;;5.02;69.99;97398.97;5009598;28;20530;-68
2021/04/12 08:57:36;;;;;;;30.13;17.60;;;;;;;5.08;69.74;97405.50;5012809;28;20509;-67
2021/04/12 09:00:28;;;;;;;25.10;14.27;;;;;;;5.27;68.22;97415.34;5010148;28;20585;-67
2021/04/12 09:03:18;;;;;;;17.03;13.50;;;;;;;5.07;69.17;97409.84;5011397;28;20490;-66
2021/04/12 09:05:56;;;;;;;17.10;14.00;;;;;;;4.82;69.11;97418.63;5014554;28;20439;-66
2021/04/12 09:08:40;;;;;;;21.13;13.93;;;;;;;5.13;68.12;97420.75;5004405;28;20538;-67
2021/04/12 09:11:16;;;;;;;23.50;13.53;;;;;;;5.37;66.80;97421.53;5012313;28;20984;-66
2021/04/12 09:14:06;;;;;;;17.60;12.03;;;;;;;5.14;66.41;97418.03;5011097;28;20451;-68
2021/04/12 09:17:06;;;;;;;19.33;12.00;;;;;;;5.59;65.51;97426.91;5005379;28;20518;-67
2021/04/12 09:19:53;;;;;;;15.63;10.90;;;;;;;5.44;66.62;97434.03;5017719;28;20750;-67
2021/04/12 09:22:22;;;;;;;15.97;11.60;;;;;;;5.53;66.10;97431.59;5006140;28;20528;-67
2021/04/12 09:25:25;;;;;;;15.60;10.60;;;;;;;5.18;66.18;97432.44;5010887;28;20451;-65
2021/04/12 09:28:20;;;;;;;13.27;9.37;;;;;;;5.68;63.66;97432.22;5011693;28;20435;-68
2021/04/12 09:31:14;;;;;;;14.13;9.03;;;;;;;5.84;63.16;97442.31;5016466;28;20427;-67
2021/04/12 09:34:02;;;;;;;14.77;9.23;;;;;;;5.99;62.03;97429.03;5010088;28;20415;-67
2021/04/12 09:36:50;;;;;;;11.47;7.23;;;;;;;5.61;60.40;97444.03;5009353;28;20515;-66
2021/04/12 09:39:37;;;;;;;9.70;8.10;;;;;;;5.36;63.08;97451.06;5010648;28;20428;-66
2021/04/12 09:42:28;;;;;;;11.73;8.60;;;;;;;5.73;62.48;97454.44;5012960;28;20466;-66
2021/04/12 09:45:19;;;;;;;9.00;8.10;;;;;;;5.95;59.93;97446.66;5008083;28;20456;-69
2021/04/12 09:48:18;;;;;;;11.20;8.70;;;;;;;5.93;58.77;97453.75;5006514;28;20477;-67
2021/04/12 09:51:21;;;;;;;8.70;6.93;;;;;;;6.66;57.89;97453.41;5021261;28;20865;-68
2021/04/12 09:53:50;;;;;;;8.07;6.70;;;;;;;6.49;55.99;97449.53;5009949;28;20431;-68
2021/04/12 09:56:33;;;;;;;10.30;6.70;;;;;;;6.12;58.73;97465.41;5007565;28;20445;-67
2021/04/12 09:59:06;;;;;;;10.47;6.80;;;;;;;5.78;57.61;97460.97;5013237;28;20936;-67
2021/04/12 10:01:52;;;;;;;12.50;5.90;;;;;;;6.65;57.46;97458.75;5011764;28;20540;-67
2021/04/12 10:04:20;;;;;;;11.33;7.83;;;;;;;6.51;57.75;97455.44;5011297;28;20504;-67
2021/04/12 10:07:07;;;;;;;10.00;6.40;;;;;;;6.12;56.41;97468.00;5011228;28;20458;-67
2021/04/12 10:09:51;;;;;;;10.40;6.67;;;;;;;5.87;57.18;97477.66;5006436;28;20906;-66
2021/04/12 10:12:31;;;;;;;9.17;5.90;;;;;;;6.48;54.89;97476.50;5010927;28;20458;-67
2021/04/12 10:15:19;;;;;;;7.73;6.00;;;;;;;6.74;54.26;97481.44;5026261;28;21019;-67
2021/04/12 10:17:49;;;;;;;14.80;6.40;;;;;;;6.85;55.25;97481.44;5014416;28;20529;-66
2021/04/12 10:20:23;;;;;;;10.00;5.80;;;;;;;6.58;54.90;97480.03;5010019;28;20574;-67
2021/04/12 10:22:55;;;;;;;7.93;5.40;;;;;;;5.99;55.95;97481.97;5009898;28;20557;-66
2021/04/12 10:25:27;;;;;;;6.80;4.77;;;;;;;6.02;54.51;97486.09;5003475;28;20907;-68
2021/04/12 10:28:01;;;;;;;8.23;5.40;;;;;;;6.51;53.35;97491.91;5006964;28;20418;-67
2021/04/12 10:30:31;;;;;;;5.63;5.10;;;;;;;6.80;52.21;97483.59;5020415;28;20833;-66
2021/04/12 10:33:02;;;;;;;6.93;4.90;;;;;;;7.18;50.60;97479.66;5035953;28;20428;-67
2021/04/12 10:35:38;;;;;;;10.63;4.57;;;;;;;7.09;49.80;97479.59;5013760;28;20443;-68
2021/04/12 10:38:05;;;;;;;4.30;3.90;;;;;;;6.63;50.02;97484.06;5028868;28;20434;-65
2021/04/12 10:40:41;;;;;;;11.53;4.50;;;;;;;7.55;48.42;97475.03;5020743;28;20451;-67
2021/04/12 10:43:11;;;;;;;6.43;4.50;;;;;;;8.02;48.60;97478.06;5011630;28;20461;-66
2021/04/12 10:45:47;;;;;;;5.53;4.90;;;;;;;7.41;49.71;97486.56;5015283;28;20465;-66
2021/04/12 10:48:32;;;;;;;5.23;4.70;;;;;;;7.58;48.02;97474.75;5030550;28;20477;-67
2021/04/12 10:51:05;;;;;;;5.13;4.37;;;;;;;6.72;48.95;97463.34;5026418;28;20427;-67
2021/04/12 10:53:43;;;;;;;6.57;4.70;;;;;;;6.90;48.96;97476.69;5022242;28;20425;-67
2021/04/12 10:56:37;;;;;;;5.17;4.20;;;;;;;7.52;47.34;97476.94;5028725;28;20424;-67
2021/04/12 10:59:24;;;;;;;9.30;5.47;;;;;;;8.01;46.70;97471.19;5008512;28;20525;-68
2021/04/12 11:02:07;;;;;;;6.53;4.20;;;;;;;7.80;48.06;97474.66;5005535;28;20601;-68
2021/04/12 11:05:04;;;;;;;7.17;3.93;;;;;;;7.39;48.98;97468.44;5015539;28;20478;-66
2021/04/12 11:08:08;;;;;;;5.10;3.87;;;;;;;7.72;48.52;97477.03;5008238;28;20996;-68
2021/04/12 11:10:44;;;;;;;4.37;3.97;;;;;;;7.12;49.05;97484.56;5008350;28;20423;-65
2021/04/12 11:13:35;;;;;;;5.00;4.13;;;;;;;7.09;49.15;97484.81;5015300;28;20410;-66
2021/04/12 11:16:29;;;;;;;7.43;4.20;;;;;;;6.82;50.37;97484.25;5031802;28;20445;-67
2021/04/12 11:19:05;;;;;;;6.23;4.07;;;;;;;7.07;51.39;97482.31;5032683;28;20426;-68
2021/04/12 11:21:54;;;;;;;6.80;4.77;;;;;;;6.89;50.69;97477.63;5013899;28;21034;-67
2021/04/12 11:24:30;;;;;;;10.73;5.70;;;;;;;6.80;49.47;97482.75;5022283;28;20530;-66
2021/04/12 11:27:17;;;;;;;6.70;4.43;;;;;;;7.22;48.66;97488.09;5014383;28;20486;-67
2021/04/12 11:29:45;;;;;;;7.10;4.20;;;;;;;7.07;47.13;97479.69;5006446;28;20411;-68
2021/04/12 11:32:35;;;;;;;6.70;3.77;;;;;;;7.05;46.82;97492.06;5014097;28;20497;-66
2021/04/12 11:35:04;;;;;;;6.00;3.73;;;;;;;7.34;46.42;97483.63;5029790;28;20442;-69
2021/04/12 11:37:51;;;;;;;7.73;4.07;;;;;;;7.28;44.45;97487.56;5013418;28;20422;-66
2021/04/12 11:40:41;;;;;;;6.50;3.83;;;;;;;7.41;44.83;97482.19;5014184;28;20441;-67
2021/04/12 11:43:18;;;;;;;4.00;2.97;;;;;;;8.08;42.70;97474.09;4992929;28;20831;-68
2021/04/12 11:45:43;;;;;;;6.13;3.37;;;;;;;7.77;43.11;97484.50;5029521;28;20530;-68
2021/04/12 11:48:17;;;;;;;3.17;2.80;;;;;;;9.10;41.12;97477.56;5014594;28;20521;-67
2021/04/12 11:51:02;;;;;;;3.90;3.10;;;;;;;9.22;41.06;97481.72;5012675;28;20188;-68
2021/04/12 11:53:28;;;;;;;4.50;2.90;;;;;;;8.76;40.88;97487.44;5028961;28;20439;-66
2021/04/12 11:56:02;;;;;;;5.70;2.90;;;;;;;9.12;40.32;97481.72;5013750;28;20434;-67
2021/04/12 11:58:33;;;;;;;8.93;2.83;;;;;;;9.13;40.49;97490.38;5007232;28;20183;-67
2021/04/12 12:01:19;;;;;;;3.80;3.00;;;;;;;8.39;40.86;97487.13;5013300;28;20428;-69
2021/04/12 12:04:19;;;;;;;3.13;2.60;;;;;;;8.11;40.91;97497.34;5004300;28;20945;-69
2021/04/12 12:07:08;;;;;;;2.53;2.33;;;;;;;7.83;41.63;97495.25;5023211;28;20533;-68
2021/04/12 12:09:40;;;;;;;2.37;2.17;;;;;;;7.48;42.54;97491.16;5025094;28;20440;-66
2021/04/12 12:12:08;;;;;;;11.60;3.00;;;;;;;7.52;41.90;97497.78;5013057;28;20778;-67
2021/04/12 12:14:49;;;;;;;3.90;2.50;;;;;;;8.12;41.79;97499.81;5013897;28;20447;-66
2021/04/12 12:17:18;;;;;;;4.30;2.47;;;;;;;7.82;41.75;97504.03;5013947;28;20513;-66
2021/04/12 12:19:57;;;;;;;3.27;2.80;;;;;;;7.64;42.90;97498.56;5025277;28;20427;-67
2021/04/12 12:22:48;;;;;;;2.90;2.70;;;;;;;7.66;43.42;97501.06;5012527;28;20518;-65
2021/04/12 12:25:32;;;;;;;4.43;2.50;;;;;;;7.51;43.00;97495.28;5031716;28;20538;-68
2021/04/12 12:27:57;;;;;;;5.13;3.03;;;;;;;7.92;42.77;97498.88;5016049;28;20447;-68
2021/04/12 12:30:33;;;;;;;3.30;2.30;;;;;;;8.99;44.74;97492.44;5007624;28;20863;-68
2021/04/12 12:33:09;;;;;;;2.60;2.40;;;;;;;9.79;42.71;97500.13;5011831;28;20180;-67
2021/04/12 12:35:44;;;;;;;2.37;2.17;;;;;;;11.06;40.43;97493.59;5028809;28;20455;-68
2021/04/12 12:38:18;;;;;;;4.03;2.10;;;;;;;10.43;35.65;97492.56;5012051;28;20433;-66
2021/04/12 12:40:47;;;;;;;6.60;2.37;;;;;;;9.91;35.69;97498.22;5012342;28;20427;-64
2021/04/12 12:43:20;;;;;;;3.47;2.30;;;;;;;9.66;35.98;97499.59;5015640;28;20907;-66
2021/04/12 12:45:46;;;;;;;3.70;2.10;;;;;;;9.99;35.95;97494.88;5016656;28;20940;-67
2021/04/12 12:48:25;;;;;;;2.87;2.03;;;;;;;9.20;37.29;97502.78;5025607;28;20543;-66
2021/04/12 12:50:55;;;;;;;4.27;2.20;;;;;;;9.37;38.40;97503.88;5020545;28;20442;-67
2021/04/12 12:53:37;;;;;;;3.97;2.73;;;;;;;9.77;37.36;97498.63;5020807;28;20427;-68
2021/04/12 12:56:06;;;;;;;2.50;2.30;;;;;;;9.90;37.11;97501.78;5008264;28;20417;-66